»·PEaware :: PAA576 KSNA-KSLC

PAA576 :: KSNA-KSLC

FLIGHT INFORMATION

Flight Status: Arrived
Operator:
PanAm
More flights by this operator :: More flights under this callsign
Pilot: Anonymous 8274 (8274)
Aircraft: BOEING 727-200
(B722)
More flights by this aircraft type
Origin: KSNA John Wayne-Orange Co
United States
Destination: KSLC Salt Lake City Intl
United States
More flights between these airports :: More routes between these airports
Route: MUSEL8 DAG J9 MLF JAMMN5
File this flight plan on PilotEdge
Remarks:
Altitude:
(Current/Filed)
31,000ft
Speed:
(Current/Filed)
460kts
Departed: 04-Aug-18 08:56 PM
Arrived: 04-Aug-18 10:20 PM
Distance/Time
Traveled:
512nm/1:24
Distance/Time
To Go:
Arrived

Flight Plot

Page will automatically refresh every two minutes.

Flight plan parsing failed; only flown route is shown


Map Options




Map Legend


Flown Route
Filed Route
Departure Airport
Arrival Airport
Navaid (VOR, NDB)
Fix

Horizontal Profiles

Position Reports

Time Latitude Longitude Heading Altitude Ground
Speed
04-Aug-18 20:31 33.676766 -117.864042 117 68ft 0kts
04-Aug-18 20:32 33.676766 -117.864042 117 68ft 0kts
04-Aug-18 20:33 33.676766 -117.864042 117 68ft 0kts
04-Aug-18 20:34 33.676766 -117.864042 117 68ft 0kts
04-Aug-18 20:35 33.676766 -117.864042 117 68ft 0kts
04-Aug-18 20:36 33.676766 -117.864042 117 68ft 0kts
04-Aug-18 20:37 33.676766 -117.864042 117 68ft 0kts
04-Aug-18 20:38 33.676766 -117.864042 117 68ft 0kts
04-Aug-18 20:39 33.676766 -117.864043 117 68ft 0kts
04-Aug-18 20:40 33.676940 -117.864442 105 68ft 2kts
04-Aug-18 20:41 33.676780 -117.864762 27 68ft 0kts
04-Aug-18 20:42 33.676780 -117.864762 27 68ft 0kts
04-Aug-18 20:43 33.676780 -117.864762 27 68ft 0kts
04-Aug-18 20:44 33.676780 -117.864762 27 68ft 0kts
04-Aug-18 20:45 33.676780 -117.864762 27 68ft 0kts
04-Aug-18 20:46 33.676780 -117.864762 27 68ft 0kts
04-Aug-18 20:47 33.676780 -117.864762 27 68ft 0kts
04-Aug-18 20:48 33.676780 -117.864762 27 68ft 0kts
04-Aug-18 20:49 33.676780 -117.864762 27 68ft 0kts
04-Aug-18 20:50 33.676780 -117.864762 27 67ft 0kts
04-Aug-18 20:51 33.676780 -117.864762 27 68ft 0kts
04-Aug-18 20:52 33.676780 -117.864762 27 68ft 0kts
04-Aug-18 20:53 33.676780 -117.864762 27 68ft 0kts
04-Aug-18 20:54 33.678260 -117.863798 28 68ft 19kts
04-Aug-18 20:55 33.680615 -117.862996 300 68ft 0kts
04-Aug-18 20:56 33.681327 -117.864575 297 68ft 11kts
04-Aug-18 20:57 33.665809 -117.875039 207 125ft 165kts
04-Aug-18 20:58 33.621502 -117.890487 187 2218ft 182kts
04-Aug-18 20:59 33.561191 -117.898465 188 3907ft 259kts
04-Aug-18 21:00 33.480294 -117.909430 187 6492ft 310kts
04-Aug-18 21:01 33.398029 -117.920359 188 10478ft 290kts
04-Aug-18 21:02 33.312494 -117.931756 188 12014ft 345kts
04-Aug-18 21:03 33.212235 -117.955855 216 13516ft 384kts
04-Aug-18 21:04 33.184171 -118.069844 291 15839ft 390kts
04-Aug-18 21:05 33.275013 -118.132698 2 17070ft 424kts
04-Aug-18 21:06 33.391250 -118.116269 4 17065ft 417kts
04-Aug-18 21:07 33.506464 -118.099953 4 17762ft 423kts
04-Aug-18 21:08 33.624488 -118.083262 4 19528ft 436kts
04-Aug-18 21:09 33.745736 -118.066048 5 21365ft 441kts
04-Aug-18 21:10 33.867100 -118.061484 334 22649ft 443kts
04-Aug-18 21:11 33.978144 -118.120041 341 24245ft 442kts
04-Aug-18 21:12 34.096526 -118.154612 343 25618ft 444kts
04-Aug-18 21:13 34.217186 -118.157392 26 26583ft 460kts
04-Aug-18 21:14 34.285625 -118.033063 72 27417ft 463kts
04-Aug-18 21:15 34.327095 -117.884713 72 28306ft 469kts
04-Aug-18 21:16 34.391270 -117.746590 59 28919ft 479kts
04-Aug-18 21:17 34.458575 -117.607828 59 29699ft 483kts
04-Aug-18 21:18 34.526648 -117.466441 59 30379ft 489kts
04-Aug-18 21:19 34.594964 -117.323636 59 30959ft 496kts
04-Aug-18 21:20 34.665123 -117.176622 59 30971ft 513kts
04-Aug-18 21:21 34.737834 -117.024537 58 30967ft 522kts
04-Aug-18 21:22 34.814291 -116.875504 57 30888ft 522kts
04-Aug-18 21:23 34.890944 -116.725939 57 30888ft 521kts
04-Aug-18 21:24 34.968761 -116.577583 48 30885ft 519kts
04-Aug-18 21:25 35.069460 -116.453624 43 30919ft 516kts
04-Aug-18 21:26 35.163346 -116.323115 45 30910ft 515kts
04-Aug-18 21:27 35.259956 -116.196359 45 30910ft 516kts
04-Aug-18 21:28 35.361316 -116.073079 42 30912ft 515kts
04-Aug-18 21:29 35.463630 -115.950825 42 30888ft 517kts
04-Aug-18 21:30 35.566643 -115.827528 42 30888ft 518kts
04-Aug-18 21:31 35.669451 -115.704237 42 30889ft 519kts
04-Aug-18 21:32 35.767306 -115.574184 46 30891ft 521kts
04-Aug-18 21:33 35.864133 -115.441528 46 30815ft 525kts
04-Aug-18 21:34 35.959847 -115.310239 46 30880ft 525kts
04-Aug-18 21:35 36.058199 -115.175500 45 30815ft 537kts
04-Aug-18 21:36 36.163366 -115.048261 42 30802ft 535kts
04-Aug-18 21:37 36.267144 -114.918885 45 30779ft 536kts
04-Aug-18 21:38 36.368624 -114.783739 45 30779ft 535kts
04-Aug-18 21:39 36.472778 -114.652364 43 30780ft 535kts
04-Aug-18 21:40 36.577509 -114.521185 43 30782ft 535kts
04-Aug-18 21:41 36.681721 -114.390450 43 30888ft 534kts
04-Aug-18 21:42 36.792767 -114.276433 29 30887ft 528kts
04-Aug-18 21:43 36.916467 -114.178038 29 30887ft 529kts
04-Aug-18 21:44 37.040013 -114.078281 29 30889ft 531kts
04-Aug-18 21:45 37.161212 -113.980095 29 30884ft 533kts
04-Aug-18 21:46 37.285265 -113.879262 29 30886ft 535kts
04-Aug-18 21:47 37.409916 -113.777579 29 30888ft 537kts
04-Aug-18 21:48 37.534298 -113.675554 29 31074ft 535kts
04-Aug-18 21:49 37.658781 -113.572841 29 31082ft 537kts
04-Aug-18 21:50 37.783527 -113.469679 28 31081ft 541kts
04-Aug-18 21:51 37.908931 -113.363921 28 31087ft 544kts
04-Aug-18 21:52 38.031431 -113.262247 29 31056ft 546kts
04-Aug-18 21:53 38.151690 -113.172302 22 31018ft 542kts
04-Aug-18 21:54 38.285440 -113.085639 22 31018ft 542kts
04-Aug-18 21:55 38.413162 -112.982064 21 31009ft 541kts
04-Aug-18 21:56 38.549683 -112.905952 18 31023ft 539kts
04-Aug-18 21:57 38.686566 -112.829575 18 31025ft 541kts
04-Aug-18 21:58 38.823314 -112.750479 13 31002ft 539kts
04-Aug-18 21:59 38.962480 -112.679159 13 30974ft 540kts
04-Aug-18 22:00 39.100029 -112.617391 17 30971ft 541kts
04-Aug-18 22:01 39.215097 -112.549445 16 30972ft 539kts
04-Aug-18 22:02 39.350200 -112.469520 16 30766ft 530kts
04-Aug-18 22:03 39.483775 -112.410209 3 28356ft 503kts
04-Aug-18 22:04 39.619433 -112.390385 358 26224ft 481kts
04-Aug-18 22:05 39.748940 -112.362491 9 24571ft 463kts
04-Aug-18 22:06 39.867848 -112.323771 9 22743ft 449kts
04-Aug-18 22:07 39.986619 -112.287379 9 20681ft 441kts
04-Aug-18 22:08 40.098061 -112.250526 28 17144ft 405kts
04-Aug-18 22:09 40.154544 -112.170401 52 13672ft 376kts
04-Aug-18 22:10 40.220092 -112.051210 55 11036ft 322kts
04-Aug-18 22:11 40.262068 -111.972165 55 11031ft 319kts
04-Aug-18 22:12 40.342121 -111.921007 347 11008ft 274kts
04-Aug-18 22:13 40.400342 -111.933506 353 11007ft 244kts
04-Aug-18 22:14 40.465867 -111.938316 356 10489ft 243kts
04-Aug-18 22:15 40.546933 -111.943968 354 8963ft 261kts
04-Aug-18 22:16 40.607165 -111.954963 351 7623ft 259kts
04-Aug-18 22:17 40.672290 -111.962022 355 5942ft 224kts
04-Aug-18 22:18 40.723380 -111.967219 355 5229ft 154kts
04-Aug-18 22:19 40.766305 -111.972196 355 4445ft 154kts
04-Aug-18 22:20 40.797094 -111.975730 354 4239ft 51kts
04-Aug-18 22:21 40.801670 -111.977787 265 4239ft 0kts
04-Aug-18 22:22 40.750767 -111.970453 355 4746ft 155kts
04-Aug-18 22:23 40.790312 -111.974956 355 4239ft 93kts
04-Aug-18 22:24 40.801670 -111.977787 265 4239ft 0kts
04-Aug-18 22:25 40.755046 -111.970903 355 4668ft 155kts
04-Aug-18 22:26 40.792715 -111.975224 355 4239ft 77kts
04-Aug-18 22:27 40.801670 -111.977787 265 4239ft 0kts
04-Aug-18 22:28 40.801670 -111.977787 265 4239ft 0kts
04-Aug-18 22:29 40.801670 -111.977787 265 4239ft 0kts
04-Aug-18 22:30 40.801670 -111.977787 265 4239ft 0kts

Navigation Log

Ident Type
Flight plan parsing failed, navigation log unavailable